createdAt,value
2019-01-24T00:00:15.890Z,97712.09
2019-01-24T00:00:47.092Z,97712.55
2019-01-24T00:01:18.288Z,97705.86
2019-01-24T00:01:49.489Z,97703.73
2019-01-24T00:02:20.696Z,97698.50
2019-01-24T00:02:51.883Z,97693.41
2019-01-24T00:03:23.070Z,97695.65
2019-01-24T00:03:54.283Z,97693.47
2019-01-24T00:04:25.469Z,97696.50
2019-01-24T00:04:56.643Z,97690.77
2019-01-24T00:05:27.828Z,97694.75
2019-01-24T00:05:59.041Z,97696.28
2019-01-24T00:06:30.213Z,97686.03
2019-01-24T00:07:01.379Z,97698.80
2019-01-24T00:07:32.572Z,97697.44
2019-01-24T00:08:03.773Z,97694.69
2019-01-24T00:08:35.004Z,97693.01
2019-01-24T00:09:06.245Z,97699.10
2019-01-24T00:09:37.419Z,97691.34
2019-01-24T00:10:08.622Z,97698.77
2019-01-24T00:10:39.832Z,97695.12
2019-01-24T00:11:11.020Z,97701.09
2019-01-24T00:11:42.203Z,97698.05
2019-01-24T00:12:13.397Z,97701.16
2019-01-24T00:12:44.578Z,97702.48
2019-01-24T00:13:15.821Z,97707.32
2019-01-24T00:13:46.996Z,97707.85
2019-01-24T00:14:18.209Z,97706.16
2019-01-24T00:14:49.394Z,97707.95
2019-01-24T00:15:20.564Z,97708.91
2019-01-24T00:15:51.743Z,97706.09
2019-01-24T00:16:22.967Z,97706.61
2019-01-24T00:16:54.121Z,97697.30
2019-01-24T00:17:25.306Z,97698.23
2019-01-24T00:17:56.490Z,97694.48
2019-01-24T00:18:27.792Z,97693.81
2019-01-24T00:18:58.999Z,97697.35
2019-01-24T00:19:30.182Z,97690.00
2019-01-24T00:20:01.375Z,97693.31
2019-01-24T00:20:32.592Z,97688.08
2019-01-24T00:21:03.811Z,97683.02
2019-01-24T00:21:35.022Z,97684.37
2019-01-24T00:22:06.214Z,97685.20
2019-01-24T00:22:37.438Z,97684.44
2019-01-24T00:23:08.628Z,97689.20
2019-01-24T00:23:39.873Z,97679.89
2019-01-24T00:24:11.058Z,97679.25
2019-01-24T00:24:42.284Z,97671.69
2019-01-24T00:25:13.452Z,97672.36
2019-01-24T00:25:45.383Z,97672.14
2019-01-24T00:26:16.584Z,97667.24
2019-01-24T00:26:47.813Z,97668.04
2019-01-24T00:27:18.992Z,97668.41
2019-01-24T00:27:50.220Z,97663.61
2019-01-24T00:28:21.389Z,97655.56
2019-01-24T00:28:52.566Z,97663.41
2019-01-24T00:29:23.742Z,97656.09
2019-01-24T00:29:54.917Z,97657.14
2019-01-24T00:30:26.105Z,97662.38
2019-01-24T00:30:57.290Z,97670.14
2019-01-24T00:31:28.470Z,97677.43
2019-01-24T00:31:59.689Z,97670.23
2019-01-24T00:32:30.927Z,97672.76
2019-01-24T00:33:02.154Z,97679.75
2019-01-24T00:33:33.405Z,97671.66
2019-01-24T00:34:04.593Z,97665.87
2019-01-24T00:34:35.811Z,97674.15
2019-01-24T00:35:07.003Z,97675.97
2019-01-24T00:35:38.198Z,97671.46
2019-01-24T00:36:09.375Z,97675.87
2019-01-24T00:36:40.542Z,97683.09
2019-01-24T00:37:11.735Z,97687.38
2019-01-24T00:37:42.906Z,97683.06
2019-01-24T00:38:14.093Z,97683.56
2019-01-24T00:38:45.311Z,97687.94
2019-01-24T00:39:17.323Z,97683.66
2019-01-24T00:39:48.499Z,97687.27
2019-01-24T00:40:19.671Z,97689.03
2019-01-24T00:40:50.850Z,97689.79
2019-01-24T00:41:22.053Z,97692.70
2019-01-24T00:41:53.223Z,97697.38
2019-01-24T00:42:24.430Z,97692.20
2019-01-24T00:42:55.632Z,97691.41
2019-01-24T00:43:26.802Z,97690.52
2019-01-24T00:43:58.018Z,97693.90
2019-01-24T00:44:29.230Z,97688.23
2019-01-24T00:45:00.435Z,97690.92
2019-01-24T00:45:31.629Z,97692.34
2019-01-24T00:46:02.846Z,97694.95
2019-01-24T00:46:34.043Z,97694.13
2019-01-24T00:47:05.217Z,97695.02
2019-01-24T00:47:36.422Z,97692.44
2019-01-24T00:48:07.609Z,97693.73
2019-01-24T00:48:38.847Z,97689.03
2019-01-24T00:49:10.105Z,97680.81
2019-01-24T00:49:41.283Z,97674.41
2019-01-24T00:50:12.483Z,97684.48
2019-01-24T00:50:43.668Z,97682.66
2019-01-24T00:51:14.854Z,97678.30
2019-01-24T00:51:46.033Z,97687.20
2019-01-24T00:52:17.201Z,97688.95
2019-01-24T00:52:48.391Z,97681.70
2019-01-24T00:53:19.565Z,97687.83
2019-01-24T00:53:50.735Z,97682.80
2019-01-24T00:54:21.967Z,97682.50
2019-01-24T00:54:53.139Z,97680.04
2019-01-24T00:55:24.421Z,97673.19
2019-01-24T00:55:55.600Z,97676.73
2019-01-24T00:56:26.784Z,97676.89
2019-01-24T00:56:58.009Z,97672.68
2019-01-24T00:57:29.194Z,97668.41
2019-01-24T00:58:00.385Z,97663.14
2019-01-24T00:58:31.606Z,97663.31
2019-01-24T00:59:02.779Z,97660.86
2019-01-24T00:59:33.952Z,97659.73
2019-01-24T01:00:05.127Z,97661.83
2019-01-24T01:00:36.359Z,97662.98
2019-01-24T01:01:07.550Z,97669.28
2019-01-24T01:01:38.751Z,97664.04
2019-01-24T01:02:09.958Z,97673.48
2019-01-24T01:02:41.127Z,97668.78
2019-01-24T01:03:12.323Z,97672.09
2019-01-24T01:03:43.498Z,97678.09
2019-01-24T01:04:14.711Z,97684.95
2019-01-24T01:04:45.891Z,97678.88
2019-01-24T01:05:17.053Z,97683.16
2019-01-24T01:05:48.294Z,97682.80
2019-01-24T01:06:19.473Z,97677.09
2019-01-24T01:06:50.643Z,97681.27
2019-01-24T01:07:21.804Z,97678.35
2019-01-24T01:07:52.978Z,97684.27
2019-01-24T01:08:24.148Z,97681.55
2019-01-24T01:08:55.328Z,97680.84
2019-01-24T01:09:26.547Z,97678.48
2019-01-24T01:09:57.690Z,97667.30
2019-01-24T01:10:28.859Z,97669.81
2019-01-24T01:11:00.118Z,97667.96
2019-01-24T01:11:31.299Z,97664.55
2019-01-24T01:12:02.531Z,97667.87
2019-01-24T01:12:33.720Z,97662.57
2019-01-24T01:13:04.898Z,97664.66
2019-01-24T01:13:36.089Z,97664.27
2019-01-24T01:14:07.269Z,97675.48
2019-01-24T01:14:38.510Z,97666.84
2019-01-24T01:15:09.735Z,97670.72
2019-01-24T01:15:40.929Z,97670.22
2019-01-24T01:16:12.090Z,97669.14
2019-01-24T01:16:43.268Z,97665.23
2019-01-24T01:17:14.422Z,97662.98
2019-01-24T01:17:45.600Z,97657.25
2019-01-24T01:18:16.780Z,97660.99
2019-01-24T01:18:47.953Z,97659.77
2019-01-24T01:19:19.117Z,97660.50
2019-01-24T01:19:50.289Z,97654.03
2019-01-24T01:20:21.573Z,97660.50
2019-01-24T01:20:52.763Z,97659.70
2019-01-24T01:21:23.952Z,97664.47
2019-01-24T01:21:55.118Z,97653.70
2019-01-24T01:22:26.296Z,97656.22
2019-01-24T01:22:57.489Z,97652.34
2019-01-24T01:23:28.674Z,97651.16
2019-01-24T01:23:59.885Z,97652.45
2019-01-24T01:24:31.063Z,97650.39
2019-01-24T01:25:02.236Z,97653.73
2019-01-24T01:25:33.461Z,97653.17
2019-01-24T01:26:04.660Z,97656.48
2019-01-24T01:26:35.884Z,97653.08
2019-01-24T01:27:07.051Z,97650.42
2019-01-24T01:27:38.236Z,97647.34
2019-01-24T01:28:09.422Z,97637.44
2019-01-24T01:28:40.629Z,97638.30
2019-01-24T01:29:11.816Z,97641.97
2019-01-24T01:29:43.030Z,97634.22
2019-01-24T01:30:14.196Z,97630.67
2019-01-24T01:30:45.437Z,97630.50
2019-01-24T01:31:16.622Z,97629.87
2019-01-24T01:31:47.820Z,97587.11
2019-01-24T01:32:19.039Z,97626.61
2019-01-24T01:32:50.253Z,97626.91
2019-01-24T01:33:21.443Z,97625.54
2019-01-24T01:33:52.596Z,97635.38
2019-01-24T01:34:23.804Z,97632.33
2019-01-24T01:34:54.977Z,97638.73
2019-01-24T01:35:26.157Z,97635.78
2019-01-24T01:35:57.383Z,97629.75
2019-01-24T01:36:28.549Z,97632.86
2019-01-24T01:36:59.745Z,97629.88
2019-01-24T01:37:33.158Z,97621.23
2019-01-24T01:38:04.329Z,97625.04
2019-01-24T01:38:35.502Z,97626.97
2019-01-24T01:39:06.708Z,97617.56
2019-01-24T01:39:37.881Z,97626.71
2019-01-24T01:40:09.165Z,97624.63
2019-01-24T01:40:40.334Z,97628.64
2019-01-24T01:41:11.529Z,97622.11
2019-01-24T01:41:42.760Z,97625.56
2019-01-24T01:42:13.956Z,97624.27
2019-01-24T01:42:45.158Z,97625.56
2019-01-24T01:43:16.331Z,97623.47
2019-01-24T01:43:47.583Z,97620.56
2019-01-24T01:44:18.799Z,97627.12
2019-01-24T01:44:49.988Z,97629.20
2019-01-24T01:45:21.180Z,97614.92
2019-01-24T01:45:52.439Z,97615.72
2019-01-24T01:46:23.603Z,97617.27
2019-01-24T01:46:54.827Z,97606.03
2019-01-24T01:47:26.013Z,97609.41
2019-01-24T01:47:57.208Z,97610.56
2019-01-24T01:48:28.930Z,97606.69
2019-01-24T01:49:00.110Z,97605.32
2019-01-24T01:49:31.272Z,97606.61
2019-01-24T01:50:02.461Z,97608.30
2019-01-24T01:50:33.631Z,97609.59
2019-01-24T01:51:04.885Z,97608.66
2019-01-24T01:51:36.092Z,97610.75
2019-01-24T01:52:07.285Z,97607.37
2019-01-24T01:52:38.461Z,97603.49
2019-01-24T01:53:09.689Z,97604.42
2019-01-24T01:53:40.864Z,97597.03
2019-01-24T01:54:12.097Z,97597.03
2019-01-24T01:54:43.261Z,97590.77
2019-01-24T01:55:14.451Z,97593.89
2019-01-24T01:55:46.741Z,97592.31
2019-01-24T01:56:17.924Z,97588.97
2019-01-24T01:56:49.110Z,97585.59
2019-01-24T01:57:20.314Z,97587.78
2019-01-24T01:57:51.535Z,97595.53
2019-01-24T01:58:22.744Z,97598.59
2019-01-24T01:58:53.929Z,97595.61
2019-01-24T01:59:25.148Z,97595.17
2019-01-24T01:59:57.397Z,97594.24
2019-01-24T02:00:28.584Z,97590.83
2019-01-24T02:00:59.779Z,97592.91
2019-01-24T02:01:30.985Z,97591.55
2019-01-24T02:02:02.232Z,97595.83
2019-01-24T02:02:33.407Z,97584.92
2019-01-24T02:03:04.647Z,97587.04
2019-01-24T02:03:35.819Z,97589.55
2019-01-24T02:04:07.015Z,97587.83
2019-01-24T02:04:42.893Z,97586.14
2019-01-24T02:05:11.147Z,97578.31
2019-01-24T02:05:42.326Z,97585.17
2019-01-24T02:06:13.496Z,97586.00
2019-01-24T02:06:44.715Z,97586.43
2019-01-24T02:07:15.919Z,97585.39
2019-01-24T02:07:47.087Z,97581.91
2019-01-24T02:08:18.338Z,97581.80
2019-01-24T02:08:49.524Z,97581.27
2019-01-24T02:09:20.672Z,97575.77
2019-01-24T02:09:51.905Z,97576.63
2019-01-24T02:10:23.091Z,97572.68
2019-01-24T02:10:54.286Z,97581.27
2019-01-24T02:11:25.476Z,97575.27
2019-01-24T02:11:56.676Z,97568.88
2019-01-24T02:12:27.863Z,97565.50
2019-01-24T02:12:59.096Z,97570.41
2019-01-24T02:13:30.294Z,97567.03
2019-01-24T02:14:01.543Z,97565.31
2019-01-24T02:14:32.707Z,97564.02
2019-01-24T02:15:03.876Z,97564.45
2019-01-24T02:15:35.054Z,97560.15
2019-01-24T02:16:06.245Z,97560.07
2019-01-24T02:16:37.411Z,97563.95
2019-01-24T02:17:08.584Z,97562.27
2019-01-24T02:17:39.753Z,97564.27
2019-01-24T02:18:10.960Z,97566.94
2019-01-24T02:18:42.148Z,97569.13
2019-01-24T02:19:13.411Z,97573.00
2019-01-24T02:19:44.620Z,97571.70
2019-01-24T02:20:15.805Z,97571.97
2019-01-24T02:20:47.043Z,97563.81
2019-01-24T02:21:18.210Z,97564.20
2019-01-24T02:21:49.379Z,97566.28
2019-01-24T02:22:20.549Z,97557.63
2019-01-24T02:22:51.741Z,97558.45
2019-01-24T02:23:22.926Z,97558.96
2019-01-24T02:23:54.113Z,97557.73
2019-01-24T02:24:25.316Z,97556.05
2019-01-24T02:24:56.533Z,97560.33
2019-01-24T02:25:27.724Z,97554.00
2019-01-24T02:25:58.939Z,97553.07
2019-01-24T02:26:30.196Z,97551.85
2019-01-24T02:27:01.410Z,97545.06
2019-01-24T02:27:32.638Z,97545.92
2019-01-24T02:28:03.810Z,97548.44
2019-01-24T02:28:34.984Z,97543.27
2019-01-24T02:29:08.470Z,97544.09
2019-01-24T02:29:39.640Z,97537.78
2019-01-24T02:30:10.804Z,97535.73
2019-01-24T02:30:42.052Z,97525.82
2019-01-24T02:31:14.371Z,97527.58
2019-01-24T02:31:45.553Z,97522.88
2019-01-24T02:32:16.735Z,97528.08
2019-01-24T02:32:47.913Z,97532.49
2019-01-24T02:33:19.099Z,97534.36
2019-01-24T02:33:50.274Z,97532.59
2019-01-24T02:34:21.440Z,97531.77
2019-01-24T02:34:52.628Z,97536.08
2019-01-24T02:35:23.809Z,97539.45
2019-01-24T02:35:54.997Z,97539.39
2019-01-24T02:36:26.183Z,97543.66
2019-01-24T02:36:57.374Z,97541.08
2019-01-24T02:37:28.534Z,97543.20
2019-01-24T02:37:59.774Z,97545.34
2019-01-24T02:38:30.970Z,97553.50
2019-01-24T02:39:02.138Z,97547.03
2019-01-24T02:39:33.393Z,97543.48
2019-01-24T02:40:04.558Z,97548.52
2019-01-24T02:40:35.743Z,97548.66
2019-01-24T02:41:06.903Z,97552.86
2019-01-24T02:41:38.104Z,97555.41
2019-01-24T02:42:09.352Z,97554.11
2019-01-24T02:42:40.581Z,97552.39
2019-01-24T02:43:11.755Z,97554.15
2019-01-24T02:43:42.937Z,97548.58
2019-01-24T02:44:14.109Z,97558.85
2019-01-24T02:44:45.292Z,97548.58
2019-01-24T02:45:16.477Z,97551.23
2019-01-24T02:45:47.639Z,97555.52
2019-01-24T02:46:18.871Z,97558.45
2019-01-24T02:46:50.065Z,97552.31
2019-01-24T02:47:21.247Z,97556.95
2019-01-24T02:47:52.463Z,97547.47
2019-01-24T02:48:23.671Z,97551.28
2019-01-24T02:48:54.851Z,97548.58
2019-01-24T02:49:26.085Z,97545.53
2019-01-24T02:49:57.284Z,97316.88
2019-01-24T02:50:28.265Z,97544.09
2019-01-24T02:50:59.431Z,97538.09
2019-01-24T02:51:30.612Z,97537.13
2019-01-24T02:52:01.791Z,97536.30
2019-01-24T02:52:33.030Z,97530.73
2019-01-24T02:53:04.258Z,97532.02
2019-01-24T02:53:35.445Z,97532.53
2019-01-24T02:54:06.636Z,97524.37
2019-01-24T02:54:38.174Z,97521.79
2019-01-24T02:55:09.402Z,97519.99
2019-01-24T02:55:40.582Z,97521.68
2019-01-24T02:56:11.763Z,97523.41
2019-01-24T02:56:42.969Z,97519.48
2019-01-24T02:57:14.158Z,97518.95
2019-01-24T02:57:45.328Z,97514.09
2019-01-24T02:58:16.576Z,97519.23
2019-01-24T02:58:47.744Z,97515.78
2019-01-24T02:59:18.934Z,97517.47
2019-01-24T02:59:50.132Z,97517.94
2019-01-24T03:00:21.333Z,97517.47
2019-01-24T03:00:52.498Z,97514.89
2019-01-24T03:01:23.666Z,97515.67
2019-01-24T03:01:54.836Z,97516.58
2019-01-24T03:02:26.032Z,97516.97
2019-01-24T03:02:57.213Z,97510.94
2019-01-24T03:03:28.445Z,97520.31
2019-01-24T03:03:59.608Z,97512.51
2019-01-24T03:04:30.854Z,97513.02
2019-01-24T03:05:02.019Z,97509.45
2019-01-24T03:05:33.195Z,97507.27
2019-01-24T03:06:04.403Z,97506.04
2019-01-24T03:06:35.582Z,97510.28
2019-01-24T03:07:06.777Z,97505.11
2019-01-24T03:07:37.978Z,97504.28
2019-01-24T03:08:09.171Z,97499.50
2019-01-24T03:08:40.463Z,97493.15
2019-01-24T03:09:11.699Z,97494.01
2019-01-24T03:09:42.895Z,97492.83
2019-01-24T03:10:14.065Z,97492.72
2019-01-24T03:10:45.282Z,97490.52
2019-01-24T03:11:16.445Z,97481.47
2019-01-24T03:11:47.615Z,97485.67
2019-01-24T03:12:18.786Z,97481.78
2019-01-24T03:12:49.986Z,97479.24
2019-01-24T03:13:21.179Z,97476.08
2019-01-24T03:13:52.377Z,97470.86
2019-01-24T03:14:23.557Z,97462.44
2019-01-24T03:14:54.722Z,97464.80
2019-01-24T03:15:25.878Z,97453.44
2019-01-24T03:15:57.067Z,97456.77
2019-01-24T03:16:28.276Z,97464.42
2019-01-24T03:16:59.459Z,97456.50
2019-01-24T03:17:30.665Z,97454.63
2019-01-24T03:18:01.883Z,97455.41
2019-01-24T03:18:33.091Z,97443.69
2019-01-24T03:19:04.284Z,97439.73
2019-01-24T03:19:35.471Z,97443.09
2019-01-24T03:20:06.662Z,97441.02
2019-01-24T03:20:37.868Z,97430.66
2019-01-24T03:21:09.059Z,97423.37
2019-01-24T03:21:40.239Z,97435.02
2019-01-24T03:22:11.423Z,97428.94
2019-01-24T03:22:42.589Z,97426.78
2019-01-24T03:23:13.777Z,97425.64
2019-01-24T03:23:45.014Z,97348.69
2019-01-24T03:24:16.202Z,97417.10
2019-01-24T03:24:47.380Z,97406.36
2019-01-24T03:25:18.601Z,97405.45
2019-01-24T03:25:49.803Z,97393.30
2019-01-24T03:26:21.057Z,97392.52
2019-01-24T03:26:52.328Z,97382.55
2019-01-24T03:27:23.470Z,97391.92
2019-01-24T03:27:54.750Z,97400.52
2019-01-24T03:28:25.927Z,97397.41
2019-01-24T03:28:57.148Z,97394.39
2019-01-24T03:29:28.335Z,97392.63
2019-01-24T03:29:59.507Z,97380.08
2019-01-24T03:30:30.682Z,97384.70
2019-01-24T03:31:01.900Z,97391.17
2019-01-24T03:31:33.105Z,97390.81
2019-01-24T03:32:04.276Z,97397.21
2019-01-24T03:32:35.465Z,97394.16
2019-01-24T03:33:06.693Z,97386.78
2019-01-24T03:33:37.881Z,97392.73
2019-01-24T03:34:09.126Z,97390.89
2019-01-24T03:34:40.303Z,97398.53
2019-01-24T03:35:11.516Z,97395.48
2019-01-24T03:35:42.705Z,97398.77
2019-01-24T03:36:13.900Z,97397.39
2019-01-24T03:36:45.076Z,97391.86
2019-01-24T03:37:16.251Z,97391.91
2019-01-24T03:37:47.481Z,97398.45
2019-01-24T03:38:18.659Z,97401.91
2019-01-24T03:38:49.842Z,97392.89
2019-01-24T03:39:21.039Z,97401.36
2019-01-24T03:39:52.205Z,97401.23
2019-01-24T03:40:23.375Z,97399.08
2019-01-24T03:40:54.575Z,97393.70
2019-01-24T03:41:25.751Z,97400.02
2019-01-24T03:41:56.944Z,97404.67
2019-01-24T03:42:28.132Z,97410.24
2019-01-24T03:42:59.301Z,97412.31
2019-01-24T03:43:30.475Z,97411.33
2019-01-24T03:44:01.648Z,97409.95
2019-01-24T03:44:32.842Z,97412.86
2019-01-24T03:45:04.021Z,97415.28
2019-01-24T03:45:35.207Z,97419.95
2019-01-24T03:46:06.423Z,97403.94
2019-01-24T03:46:37.599Z,97409.12
2019-01-24T03:47:08.773Z,97412.77
2019-01-24T03:47:39.958Z,97410.75
2019-01-24T03:48:11.215Z,97411.97
2019-01-24T03:48:42.399Z,97417.23
2019-01-24T03:49:14.436Z,97415.94
2019-01-24T03:49:45.619Z,97411.58
2019-01-24T03:50:16.810Z,97424.53
2019-01-24T03:50:47.994Z,97427.90
2019-01-24T03:51:19.164Z,97423.94
2019-01-24T03:51:50.359Z,97432.48
2019-01-24T03:52:21.554Z,97428.64
2019-01-24T03:52:52.746Z,97426.67
2019-01-24T03:53:23.907Z,97425.45
2019-01-24T03:53:55.138Z,97427.14
2019-01-24T03:54:26.319Z,97418.38
2019-01-24T03:54:57.485Z,97417.48
2019-01-24T03:55:28.657Z,97414.89
2019-01-24T03:55:59.822Z,97414.89
2019-01-24T03:56:30.998Z,97418.85
2019-01-24T03:57:02.168Z,97415.02
2019-01-24T03:57:33.410Z,97419.84
2019-01-24T03:58:04.574Z,97415.77
2019-01-24T03:58:35.749Z,97419.74
2019-01-24T03:59:06.957Z,97424.02
2019-01-24T03:59:38.180Z,97423.03
2019-01-24T04:00:09.366Z,97422.72
2019-01-24T04:00:40.528Z,97417.54
2019-01-24T04:01:11.740Z,97432.14
2019-01-24T04:01:42.854Z,97429.03
2019-01-24T04:02:14.068Z,97427.90
2019-01-24T04:02:45.302Z,97430.48
2019-01-24T04:03:16.521Z,97423.23
2019-01-24T04:03:47.701Z,97430.33
2019-01-24T04:04:18.883Z,97428.95
2019-01-24T04:04:50.102Z,97424.24
2019-01-24T04:05:21.290Z,97424.24
2019-01-24T04:05:52.442Z,97424.55
2019-01-24T04:06:23.621Z,97426.63
2019-01-24T04:06:54.793Z,97424.63
2019-01-24T04:07:25.964Z,97421.14
2019-01-24T04:07:57.246Z,97418.98
2019-01-24T04:08:28.437Z,97427.92
2019-01-24T04:08:59.600Z,97426.08
2019-01-24T04:09:30.757Z,97432.86
2019-01-24T04:10:01.926Z,97423.44
2019-01-24T04:10:33.102Z,97429.91
2019-01-24T04:11:04.280Z,97422.97
2019-01-24T04:11:35.460Z,97429.83
2019-01-24T04:12:08.365Z,97431.27
2019-01-24T04:12:40.375Z,97418.19
2019-01-24T04:13:11.554Z,97419.48
2019-01-24T04:13:42.720Z,97426.34
2019-01-24T04:14:13.900Z,97434.43
2019-01-24T04:14:45.084Z,97419.70
2019-01-24T04:15:16.304Z,97429.17
2019-01-24T04:15:47.540Z,97432.14
2019-01-24T04:16:18.744Z,97429.00
2019-01-24T04:16:49.988Z,97430.30
2019-01-24T04:17:21.144Z,97435.19
2019-01-24T04:17:52.364Z,97434.50
2019-01-24T04:18:23.525Z,97433.37
2019-01-24T04:18:54.709Z,97434.68
2019-01-24T04:19:25.888Z,97435.16
2019-01-24T04:19:57.079Z,97436.89
2019-01-24T04:20:28.278Z,97437.80
2019-01-24T04:20:59.501Z,97441.08
2019-01-24T04:21:30.740Z,97441.47
2019-01-24T04:22:01.911Z,97441.77
2019-01-24T04:22:33.082Z,97440.09
2019-01-24T04:23:04.297Z,97442.16
2019-01-24T04:23:35.531Z,97448.34
2019-01-24T04:24:06.674Z,97444.97
2019-01-24T04:24:37.851Z,97441.39
2019-01-24T04:25:08.941Z,97444.84
2019-01-24T04:25:40.104Z,97443.55
2019-01-24T04:26:11.261Z,97445.97
2019-01-24T04:26:42.439Z,97450.25
2019-01-24T04:27:13.655Z,97453.23
2019-01-24T04:27:44.859Z,97444.92
2019-01-24T04:28:16.032Z,97440.56
2019-01-24T04:28:47.217Z,97460.48
2019-01-24T04:29:18.401Z,97458.25
2019-01-24T04:29:49.577Z,97460.31
2019-01-24T04:30:20.742Z,97446.44
2019-01-24T04:30:51.929Z,97453.14
2019-01-24T04:31:23.083Z,97453.14
2019-01-24T04:31:54.255Z,97450.94
2019-01-24T04:32:25.462Z,97454.30
2019-01-24T04:32:56.629Z,97450.33
2019-01-24T04:33:27.792Z,97444.14
2019-01-24T04:33:58.993Z,97452.31
2019-01-24T04:34:30.163Z,97454.35
2019-01-24T04:35:01.335Z,97443.92
2019-01-24T04:35:32.508Z,97445.66
2019-01-24T04:36:03.684Z,97443.45
2019-01-24T04:36:34.878Z,97443.97
2019-01-24T04:37:06.032Z,97437.88
2019-01-24T04:37:37.225Z,97446.66
2019-01-24T04:38:08.418Z,97450.45
2019-01-24T04:38:39.584Z,97437.88
2019-01-24T04:39:10.798Z,97443.84
2019-01-24T04:39:41.988Z,97452.00
2019-01-24T04:40:13.162Z,97444.66
2019-01-24T04:40:44.342Z,97359.20
2019-01-24T04:41:15.565Z,97437.81
2019-01-24T04:41:46.746Z,97439.16
2019-01-24T04:42:17.914Z,97444.66
2019-01-24T04:42:49.118Z,97442.00
2019-01-24T04:43:20.367Z,97443.22
2019-01-24T04:43:51.534Z,97441.69
2019-01-24T04:44:22.694Z,97443.64
2019-01-24T04:44:53.868Z,97444.03
2019-01-24T04:45:25.054Z,97445.09
2019-01-24T04:45:56.216Z,97446.61
2019-01-24T04:46:27.420Z,97446.11
2019-01-24T04:46:58.620Z,97445.26
2019-01-24T04:47:29.812Z,97448.71
2019-01-24T04:48:00.975Z,97449.67
2019-01-24T04:48:32.202Z,97449.30
2019-01-24T04:49:03.416Z,97448.47
2019-01-24T04:49:34.625Z,97450.06
2019-01-24T04:50:05.800Z,97456.98
2019-01-24T04:50:36.970Z,97457.08
2019-01-24T04:51:08.141Z,97460.39
2019-01-24T04:51:39.346Z,97448.52
2019-01-24T04:52:10.547Z,97449.16
2019-01-24T04:52:41.749Z,97458.18
2019-01-24T04:53:12.982Z,97459.39
2019-01-24T04:53:44.201Z,97452.38
2019-01-24T04:54:15.408Z,97452.76
2019-01-24T04:54:46.611Z,97451.81
2019-01-24T04:55:17.782Z,97455.95
2019-01-24T04:55:48.963Z,97453.70
2019-01-24T04:56:20.174Z,97451.67
2019-01-24T04:56:51.392Z,97447.69
2019-01-24T04:57:22.581Z,97446.78
2019-01-24T04:57:54.988Z,97451.88
2019-01-24T04:58:26.477Z,97445.39
2019-01-24T04:58:57.645Z,97444.48
2019-01-24T04:59:28.875Z,97447.20
2019-01-24T05:00:00.050Z,97438.76
2019-01-24T05:00:31.320Z,97437.46
2019-01-24T05:01:02.518Z,97442.00
2019-01-24T05:01:33.702Z,97438.20
2019-01-24T05:02:04.902Z,97440.94
2019-01-24T05:02:36.064Z,97437.88
2019-01-24T05:03:07.227Z,97440.56
2019-01-24T05:03:38.403Z,97439.35
2019-01-24T05:04:09.578Z,97442.00
2019-01-24T05:04:40.776Z,97439.35
2019-01-24T05:05:11.952Z,97448.44
2019-01-24T05:05:43.171Z,97437.67
2019-01-24T05:06:14.374Z,97442.24
2019-01-24T05:06:45.565Z,97443.92
2019-01-24T05:07:16.754Z,97450.86
2019-01-24T05:07:47.936Z,97449.56
2019-01-24T05:08:19.143Z,97446.11
2019-01-24T05:08:50.350Z,97451.12
2019-01-24T05:09:21.526Z,97441.13
2019-01-24T05:09:52.700Z,97441.51
2019-01-24T05:10:23.895Z,97443.72
2019-01-24T05:10:55.123Z,97443.72
2019-01-24T05:11:26.293Z,97448.14
2019-01-24T05:11:57.468Z,97454.28
2019-01-24T05:12:28.629Z,97447.03
2019-01-24T05:12:59.792Z,97445.73
2019-01-24T05:13:30.958Z,97446.05
2019-01-24T05:14:02.135Z,97444.93
2019-01-24T05:14:33.298Z,97451.42
2019-01-24T05:15:04.460Z,97452.33
2019-01-24T05:15:35.648Z,97453.25
2019-01-24T05:16:06.888Z,97449.44
2019-01-24T05:16:38.049Z,97453.48
2019-01-24T05:17:09.252Z,97448.76
2019-01-24T05:17:40.476Z,97448.52
2019-01-24T05:18:11.677Z,97451.11
2019-01-24T05:18:42.865Z,97445.56
2019-01-24T05:19:14.033Z,97449.81
2019-01-24T05:19:45.212Z,97446.09
2019-01-24T05:20:16.417Z,97449.52
2019-01-24T05:20:47.566Z,97449.08
2019-01-24T05:21:18.816Z,97446.63
2019-01-24T05:21:50.007Z,97448.78
2019-01-24T05:22:21.221Z,97450.16
2019-01-24T05:22:52.423Z,97437.47
2019-01-24T05:23:23.655Z,97442.66
2019-01-24T05:23:54.836Z,97445.64
2019-01-24T05:24:25.998Z,97375.41
2019-01-24T05:24:57.178Z,97433.58
2019-01-24T05:25:28.390Z,97438.14
2019-01-24T05:25:59.608Z,97442.50
2019-01-24T05:26:30.785Z,97445.09
2019-01-24T05:27:01.965Z,97439.08
2019-01-24T05:27:33.177Z,97437.23
2019-01-24T05:28:04.362Z,97439.82
2019-01-24T05:28:35.528Z,97433.33
2019-01-24T05:29:06.720Z,97436.92
2019-01-24T05:29:37.900Z,97439.61
2019-01-24T05:30:09.062Z,97437.54
2019-01-24T05:30:40.233Z,97437.41
2019-01-24T05:31:11.461Z,97435.64
2019-01-24T05:31:42.973Z,97436.94
2019-01-24T05:32:14.176Z,97439.09
2019-01-24T05:32:45.430Z,97441.69
2019-01-24T05:33:16.611Z,97443.64
2019-01-24T05:33:47.794Z,97438.70
2019-01-24T05:34:18.974Z,97440.73
2019-01-24T05:34:50.132Z,97448.52
2019-01-24T05:35:21.330Z,97437.40
2019-01-24T05:35:52.572Z,97439.82
2019-01-24T05:36:23.752Z,97431.65
2019-01-24T05:36:54.936Z,97433.89
2019-01-24T05:37:26.149Z,97440.44
2019-01-24T05:37:57.313Z,97431.05
2019-01-24T05:38:28.495Z,97438.23
2019-01-24T05:38:59.659Z,97428.84
2019-01-24T05:39:30.831Z,97430.00
2019-01-24T05:40:02.005Z,97425.34
2019-01-24T05:40:33.202Z,97430.52
2019-01-24T05:41:04.370Z,97430.14
2019-01-24T05:41:35.555Z,97423.13
2019-01-24T05:42:06.732Z,97422.83
2019-01-24T05:42:37.957Z,97426.42
2019-01-24T05:43:09.123Z,97436.86
2019-01-24T05:43:40.302Z,97430.31
2019-01-24T05:44:11.507Z,97442.05
2019-01-24T05:44:42.705Z,97436.41
2019-01-24T05:45:13.878Z,97437.94
2019-01-24T05:45:45.456Z,97445.90
2019-01-24T05:46:16.620Z,97441.53
2019-01-24T05:46:47.812Z,97443.44
2019-01-24T05:47:19.042Z,97440.02
2019-01-24T05:47:50.209Z,97437.56
2019-01-24T05:48:21.395Z,97443.66
2019-01-24T05:48:52.602Z,97434.28
2019-01-24T05:49:23.756Z,97438.65
2019-01-24T05:49:54.909Z,97433.55
2019-01-24T05:50:26.129Z,97438.65
2019-01-24T05:50:57.308Z,97430.70
2019-01-24T05:51:28.477Z,97423.69
2019-01-24T05:51:59.672Z,97428.09
2019-01-24T05:52:30.841Z,97437.95
2019-01-24T05:53:02.015Z,97428.48
2019-01-24T05:53:33.178Z,97429.26
2019-01-24T05:54:04.347Z,97428.34
2019-01-24T05:54:35.526Z,97429.64
2019-01-24T05:55:06.710Z,97430.47
2019-01-24T05:55:37.925Z,97417.58
2019-01-24T05:56:09.101Z,97420.27
2019-01-24T05:56:40.292Z,97426.96
2019-01-24T05:57:11.466Z,97425.97
2019-01-24T05:57:42.636Z,97423.30
2019-01-24T05:58:13.848Z,97428.34
2019-01-24T05:58:45.072Z,97422.55
2019-01-24T05:59:16.270Z,97429.33
2019-01-24T05:59:47.438Z,97423.67
2019-01-24T06:00:18.648Z,97433.05
2019-01-24T06:00:49.838Z,97428.08
2019-01-24T06:01:21.024Z,97425.63
2019-01-24T06:01:52.233Z,97425.11
2019-01-24T06:02:23.415Z,97423.20
2019-01-24T06:02:54.633Z,97425.41
2019-01-24T06:03:25.797Z,97419.30
2019-01-24T06:03:56.978Z,97424.63
2019-01-24T06:04:28.158Z,97427.31
2019-01-24T06:04:59.331Z,97435.40
2019-01-24T06:05:30.510Z,97427.61
2019-01-24T06:06:01.696Z,97430.21
2019-01-24T06:06:32.862Z,97306.97